createdAt,value
2022-12-08T00:00:14.871Z,3.45
2022-12-08T00:01:22.539Z,3.97
2022-12-08T00:02:24.953Z,3.70
2022-12-08T00:03:27.443Z,3.20
2022-12-08T00:04:29.953Z,3.00
2022-12-08T00:05:51.050Z,3.50
2022-12-08T00:07:11.573Z,3.65
2022-12-08T00:08:32.266Z,3.13
2022-12-08T00:09:40.075Z,3.40
2022-12-08T00:10:49.925Z,3.38
2022-12-08T00:12:09.241Z,3.92
2022-12-08T00:13:11.583Z,4.32
2022-12-08T00:14:13.984Z,2.92
2022-12-08T00:15:16.349Z,2.95
2022-12-08T00:16:18.620Z,3.13
2022-12-08T00:17:21.140Z,3.10
2022-12-08T00:18:23.402Z,2.90
2022-12-08T00:19:26.871Z,2.85
2022-12-08T00:20:29.207Z,2.80
2022-12-08T00:21:31.470Z,3.35
2022-12-08T00:22:33.743Z,2.67
2022-12-08T00:23:35.993Z,2.58
2022-12-08T00:24:40.210Z,2.70
2022-12-08T00:25:42.479Z,3.30
2022-12-08T00:26:45.231Z,2.80
2022-12-08T00:27:47.558Z,3.22
2022-12-08T00:28:49.829Z,2.97
2022-12-08T00:29:52.048Z,4.75
2022-12-08T00:30:54.851Z,2.55
2022-12-08T00:31:57.289Z,3.92
2022-12-08T00:32:59.667Z,3.35
2022-12-08T00:34:02.146Z,3.78
2022-12-08T00:35:05.085Z,3.00
2022-12-08T00:36:09.199Z,3.45
2022-12-08T00:37:11.424Z,3.05
2022-12-08T00:38:13.684Z,2.90
2022-12-08T00:39:17.604Z,3.38
2022-12-08T00:40:19.941Z,2.67
2022-12-08T00:41:44.053Z,3.30
2022-12-08T00:42:46.267Z,3.05
2022-12-08T00:44:45.054Z,3.58
2022-12-08T00:45:47.452Z,3.53
2022-12-08T00:46:50.056Z,3.00
2022-12-08T00:47:52.279Z,3.92
2022-12-08T00:48:54.540Z,3.10
2022-12-08T00:49:57.203Z,4.18
2022-12-08T00:50:59.511Z,3.33
2022-12-08T00:52:01.987Z,3.60
2022-12-08T00:53:04.215Z,4.25
2022-12-08T00:54:07.417Z,3.95
2022-12-08T00:55:09.678Z,3.72
2022-12-08T00:56:11.898Z,5.03
2022-12-08T00:57:14.167Z,3.30
2022-12-08T00:58:16.429Z,3.70
2022-12-08T00:59:18.889Z,2.92
2022-12-08T01:00:21.258Z,3.45
2022-12-08T01:01:23.944Z,4.05
2022-12-08T01:02:26.242Z,4.10
2022-12-08T01:03:29.063Z,3.58
2022-12-08T01:04:31.324Z,3.53
2022-12-08T01:05:33.581Z,3.03
2022-12-08T01:06:36.325Z,3.67
2022-12-08T01:07:38.601Z,4.30
2022-12-08T01:08:41.661Z,3.28
2022-12-08T01:09:43.882Z,3.30
2022-12-08T01:10:46.232Z,3.60
2022-12-08T01:11:48.600Z,3.40
2022-12-08T01:12:50.822Z,4.15
2022-12-08T01:13:54.509Z,3.85
2022-12-08T01:15:00.718Z,4.40
2022-12-08T01:16:05.517Z,4.72
2022-12-08T01:17:08.086Z,4.05
2022-12-08T01:18:10.354Z,3.78
2022-12-08T01:19:14.224Z,2.92
2022-12-08T01:20:16.514Z,4.35
2022-12-08T01:21:19.077Z,4.53
2022-12-08T01:22:21.297Z,4.07
2022-12-08T01:23:23.915Z,5.07
2022-12-08T01:24:26.669Z,4.88
2022-12-08T01:25:28.898Z,4.25
2022-12-08T01:26:31.184Z,3.60
2022-12-08T01:27:33.440Z,3.60
2022-12-08T01:28:35.662Z,4.10
2022-12-08T01:29:37.937Z,5.28
2022-12-08T01:30:40.847Z,4.50
2022-12-08T01:31:43.476Z,4.63
2022-12-08T01:32:45.810Z,4.20
2022-12-08T01:33:48.870Z,4.50
2022-12-08T01:34:51.221Z,4.45
2022-12-08T01:35:54.147Z,4.63
2022-12-08T01:36:56.441Z,4.80
2022-12-08T01:37:58.683Z,5.60
2022-12-08T01:39:02.108Z,4.50
2022-12-08T01:40:05.260Z,4.97
2022-12-08T01:41:07.641Z,4.47
2022-12-08T01:42:21.406Z,4.40
2022-12-08T01:43:23.760Z,4.95
2022-12-08T01:44:25.948Z,4.68
2022-12-08T01:45:31.126Z,4.90
2022-12-08T01:46:35.090Z,4.43
2022-12-08T01:48:26.978Z,5.97
2022-12-08T01:49:33.756Z,4.45
2022-12-08T01:50:36.372Z,4.68
2022-12-08T01:51:50.318Z,6.90
2022-12-08T01:53:15.931Z,5.63
2022-12-08T01:54:19.573Z,4.20
2022-12-08T01:55:30.252Z,5.82
2022-12-08T01:56:41.452Z,5.65
2022-12-08T01:57:50.780Z,4.93
2022-12-08T01:58:54.400Z,6.28
2022-12-08T02:00:09.179Z,7.45
2022-12-08T02:01:11.814Z,5.47
2022-12-08T02:02:14.226Z,5.53
2022-12-08T02:03:25.425Z,6.25
2022-12-08T02:04:27.723Z,5.18
2022-12-08T02:05:33.830Z,6.80
2022-12-08T02:06:39.872Z,6.55
2022-12-08T02:07:43.707Z,5.82
2022-12-08T02:08:47.680Z,5.45
2022-12-08T02:09:50.859Z,5.80
2022-12-08T02:10:53.219Z,5.20
2022-12-08T02:11:57.720Z,5.25
2022-12-08T02:13:01.116Z,5.90
2022-12-08T02:14:06.497Z,5.47
2022-12-08T02:15:09.390Z,6.07
2022-12-08T02:16:48.072Z,5.35
2022-12-08T02:18:24.809Z,4.82
2022-12-08T02:19:59.956Z,7.28
2022-12-08T02:21:18.110Z,5.78
2022-12-08T02:22:37.623Z,6.82
2022-12-08T02:24:00.483Z,6.15
2022-12-08T02:25:28.386Z,6.63
2022-12-08T02:26:57.939Z,7.55
2022-12-08T02:28:13.183Z,6.90
2022-12-08T02:29:28.093Z,12.68
2022-12-08T02:30:55.287Z,8.15
2022-12-08T02:32:15.154Z,10.63
2022-12-08T02:33:35.821Z,12.30
2022-12-08T02:34:47.050Z,8.10
2022-12-08T02:36:23.345Z,9.25
2022-12-08T02:37:28.509Z,9.25
2022-12-08T02:38:53.949Z,7.88
2022-12-08T02:40:07.282Z,8.40
2022-12-08T02:41:28.133Z,8.35
2022-12-08T02:42:38.445Z,9.85
2022-12-08T02:43:49.362Z,11.15
2022-12-08T02:45:30.418Z,11.13
2022-12-08T02:46:53.566Z,12.80
2022-12-08T02:47:58.016Z,12.23
2022-12-08T02:49:00.807Z,9.80
2022-12-08T02:50:04.128Z,12.18
2022-12-08T02:51:06.733Z,12.50
2022-12-08T02:52:14.727Z,10.23
2022-12-08T02:53:16.940Z,12.40
2022-12-08T02:54:19.242Z,10.60
2022-12-08T02:55:51.869Z,12.73
2022-12-08T02:57:23.637Z,10.43
2022-12-08T02:58:53.938Z,13.38
2022-12-08T03:00:16.501Z,11.02
2022-12-08T03:01:37.697Z,16.10
2022-12-08T03:03:19.323Z,15.55
2022-12-08T03:04:41.781Z,11.40
2022-12-08T03:06:14.704Z,12.02
2022-12-08T03:07:49.994Z,11.95
2022-12-08T03:09:14.593Z,15.75
2022-12-08T03:10:20.995Z,10.57
2022-12-08T03:11:40.123Z,11.82
2022-12-08T03:13:00.744Z,12.00
2022-12-08T03:14:05.347Z,15.93
2022-12-08T03:15:12.954Z,11.32
2022-12-08T03:16:21.004Z,11.70
2022-12-08T03:17:28.284Z,12.07
2022-12-08T03:18:33.752Z,15.23
2022-12-08T03:19:39.564Z,14.45
2022-12-08T03:20:43.596Z,13.82
2022-12-08T03:21:50.397Z,12.32
2022-12-08T03:22:56.308Z,12.52
2022-12-08T03:23:58.877Z,11.55
2022-12-08T03:25:01.533Z,9.93
2022-12-08T03:26:18.780Z,12.32
2022-12-08T03:27:24.501Z,11.25
2022-12-08T03:28:26.781Z,12.10
2022-12-08T03:29:30.590Z,12.98
2022-12-08T03:30:38.060Z,10.85
2022-12-08T03:31:45.908Z,13.32
2022-12-08T03:32:52.043Z,11.13
2022-12-08T03:33:56.523Z,15.63
2022-12-08T03:35:02.432Z,13.07
2022-12-08T03:36:07.886Z,13.02
2022-12-08T03:37:10.404Z,14.38
2022-12-08T03:38:16.407Z,18.30
2022-12-08T03:39:18.735Z,17.02
2022-12-08T03:40:21.028Z,15.70
2022-12-08T03:41:23.534Z,15.27
2022-12-08T03:42:25.831Z,15.18
2022-12-08T03:43:28.134Z,15.27
2022-12-08T03:44:30.391Z,15.13
2022-12-08T03:45:32.918Z,13.73
2022-12-08T03:46:35.177Z,16.70
2022-12-08T03:47:37.750Z,13.63
2022-12-08T03:48:40.105Z,16.58
2022-12-08T03:49:42.367Z,15.65
2022-12-08T03:50:44.690Z,17.80
2022-12-08T03:52:20.658Z,16.38
2022-12-08T03:53:22.952Z,13.13
2022-12-08T03:54:25.302Z,12.98
2022-12-08T03:55:27.593Z,13.45
2022-12-08T03:56:37.434Z,13.98
2022-12-08T03:57:39.824Z,13.75
2022-12-08T03:58:43.419Z,16.92
2022-12-08T03:59:45.657Z,11.70
2022-12-08T04:00:47.865Z,12.32
2022-12-08T04:01:50.222Z,11.23
2022-12-08T04:02:52.648Z,14.68
2022-12-08T04:03:55.213Z,11.48
2022-12-08T04:04:57.501Z,13.95
2022-12-08T04:05:59.723Z,11.90
2022-12-08T04:07:02.009Z,12.27
2022-12-08T04:08:04.521Z,11.75
2022-12-08T04:09:06.868Z,11.00
2022-12-08T04:10:09.688Z,13.73
2022-12-08T04:11:12.098Z,13.25
2022-12-08T04:12:14.448Z,13.80
2022-12-08T04:13:16.712Z,14.38
2022-12-08T04:14:19.069Z,14.63
2022-12-08T04:15:21.497Z,11.57
2022-12-08T04:16:26.015Z,13.15
2022-12-08T04:17:28.317Z,14.63
2022-12-08T04:18:31.326Z,12.80
2022-12-08T04:19:33.612Z,17.10
2022-12-08T04:20:40.681Z,12.30
2022-12-08T04:21:42.931Z,11.90
2022-12-08T04:22:45.309Z,12.00
2022-12-08T04:23:47.922Z,14.07
2022-12-08T04:24:50.188Z,12.18
2022-12-08T04:25:53.089Z,11.68
2022-12-08T04:26:55.317Z,13.85
2022-12-08T04:27:57.599Z,11.70
2022-12-08T04:28:59.849Z,12.70
2022-12-08T04:30:02.686Z,12.57
2022-12-08T04:31:05.828Z,12.75
2022-12-08T04:32:08.148Z,12.95
2022-12-08T04:33:10.697Z,10.50
2022-12-08T04:34:12.960Z,10.07
2022-12-08T04:35:15.341Z,15.25
2022-12-08T04:36:17.626Z,12.07
2022-12-08T04:37:19.862Z,13.32
2022-12-08T04:38:22.272Z,13.27
2022-12-08T04:39:24.618Z,13.05
2022-12-08T04:41:19.165Z,14.68
2022-12-08T04:42:21.398Z,13.02
2022-12-08T04:43:23.699Z,16.50
2022-12-08T04:44:26.005Z,16.63
2022-12-08T04:45:28.272Z,16.38
2022-12-08T04:46:30.591Z,13.60
2022-12-08T04:47:33.117Z,13.25
2022-12-08T04:48:37.964Z,16.75
2022-12-08T04:49:40.240Z,14.82
2022-12-08T04:50:44.527Z,15.15
2022-12-08T04:51:46.814Z,13.93
2022-12-08T04:52:49.089Z,16.85
2022-12-08T04:53:51.393Z,16.52
2022-12-08T04:54:53.685Z,12.60
2022-12-08T04:55:55.974Z,13.30
2022-12-08T04:56:58.217Z,14.73
2022-12-08T04:58:00.707Z,15.57
2022-12-08T04:59:02.983Z,17.08
2022-12-08T05:00:07.307Z,15.20
2022-12-08T05:01:10.011Z,15.60
2022-12-08T05:02:13.502Z,13.45
2022-12-08T05:03:16.610Z,14.55
2022-12-08T05:04:18.846Z,14.63
2022-12-08T05:05:21.277Z,19.73
2022-12-08T05:06:24.468Z,18.40
2022-12-08T05:07:27.069Z,15.82
2022-12-08T05:08:29.907Z,14.18
2022-12-08T05:09:32.303Z,15.88
2022-12-08T05:10:34.690Z,18.67
2022-12-08T05:11:36.934Z,14.38
2022-12-08T05:12:39.194Z,16.27
2022-12-08T05:13:41.670Z,14.25
2022-12-08T05:14:43.997Z,15.10
2022-12-08T05:15:46.447Z,20.35
2022-12-08T05:16:49.070Z,14.90
2022-12-08T05:17:51.769Z,16.05
2022-12-08T05:18:54.225Z,14.25
2022-12-08T05:19:56.503Z,16.63
2022-12-08T05:20:59.548Z,13.48
2022-12-08T05:22:01.931Z,15.23
2022-12-08T05:23:04.192Z,14.68
2022-12-08T05:24:06.890Z,13.73
2022-12-08T05:25:09.517Z,15.98
2022-12-08T05:26:11.790Z,16.30
2022-12-08T05:30:08.081Z,13.48
2022-12-08T05:31:14.916Z,17.73
2022-12-08T05:32:17.383Z,14.43
2022-12-08T05:33:19.669Z,14.20
2022-12-08T05:34:21.991Z,16.55
2022-12-08T05:35:24.370Z,17.98
2022-12-08T05:36:26.604Z,25.58
2022-12-08T05:37:28.871Z,17.75
2022-12-08T05:38:31.192Z,20.27
2022-12-08T05:39:36.188Z,17.55
2022-12-08T05:40:39.962Z,21.58
2022-12-08T05:41:42.725Z,18.60
2022-12-08T05:42:45.003Z,16.80
2022-12-08T05:43:48.150Z,16.10
2022-12-08T05:44:50.413Z,15.40
2022-12-08T05:45:52.954Z,17.67
2022-12-08T05:46:55.240Z,14.98
2022-12-08T05:47:57.460Z,19.60
2022-12-08T05:49:01.213Z,17.08
2022-12-08T05:50:04.250Z,17.13
2022-12-08T05:51:12.244Z,18.25
2022-12-08T05:52:16.906Z,16.52
2022-12-08T05:53:20.617Z,15.88
2022-12-08T05:54:24.004Z,16.60
2022-12-08T05:55:26.339Z,18.40
2022-12-08T05:56:28.629Z,17.60
2022-12-08T05:57:30.880Z,17.52
2022-12-08T05:58:33.110Z,15.93
2022-12-08T05:59:35.361Z,16.98
2022-12-08T06:00:37.725Z,15.60
2022-12-08T06:01:40.077Z,17.05
2022-12-08T06:02:42.505Z,15.25
2022-12-08T06:03:44.919Z,17.58
2022-12-08T06:04:47.154Z,17.20
2022-12-08T06:05:49.465Z,21.65
2022-12-08T06:06:51.806Z,21.73
2022-12-08T06:07:54.119Z,25.30
2022-12-08T06:08:56.505Z,23.10
2022-12-08T06:09:58.752Z,22.40
2022-12-08T06:11:01.141Z,19.80
2022-12-08T06:12:03.917Z,17.48
2022-12-08T06:13:06.532Z,19.48
2022-12-08T06:14:12.389Z,16.27
2022-12-08T06:15:14.726Z,15.23
2022-12-08T06:16:17.721Z,18.60
2022-12-08T06:17:20.089Z,16.85
2022-12-08T06:18:22.528Z,16.20
2022-12-08T06:19:24.844Z,13.23
2022-12-08T06:20:27.193Z,14.90
2022-12-08T06:21:29.716Z,13.02
2022-12-08T06:22:31.961Z,11.60
2022-12-08T06:23:34.857Z,14.43
2022-12-08T06:24:37.190Z,12.38
2022-12-08T06:25:39.445Z,14.30
2022-12-08T06:26:41.788Z,11.35
2022-12-08T06:27:44.590Z,13.07
2022-12-08T06:28:47.158Z,14.32
2022-12-08T06:29:49.522Z,14.23
2022-12-08T06:30:51.797Z,18.02
2022-12-08T06:31:54.174Z,12.95
2022-12-08T06:32:56.543Z,15.80
2022-12-08T06:33:58.858Z,21.20
2022-12-08T06:35:01.129Z,19.90
2022-12-08T06:36:04.346Z,18.00
2022-12-08T06:37:06.655Z,17.67
2022-12-08T06:38:09.101Z,17.50
2022-12-08T06:39:11.526Z,15.88
2022-12-08T06:40:14.201Z,15.32
2022-12-08T06:41:16.946Z,20.70
2022-12-08T06:42:37.746Z,15.93
2022-12-08T06:43:41.224Z,14.40
2022-12-08T06:44:43.636Z,12.77
2022-12-08T06:45:45.935Z,12.18
2022-12-08T06:46:48.195Z,13.55
2022-12-08T06:47:50.457Z,12.75
2022-12-08T06:48:52.860Z,13.10
2022-12-08T06:49:55.121Z,14.57
2022-12-08T06:50:57.381Z,16.33
2022-12-08T06:51:59.633Z,12.85
2022-12-08T06:53:05.473Z,15.07
2022-12-08T06:54:08.199Z,15.00
2022-12-08T06:55:20.488Z,15.65
2022-12-08T06:56:32.872Z,19.10
2022-12-08T06:57:35.532Z,17.25
2022-12-08T06:58:38.265Z,14.35
2022-12-08T06:59:40.588Z,15.90
2022-12-08T07:00:43.448Z,16.15
2022-12-08T07:01:46.507Z,17.77
2022-12-08T07:02:49.359Z,19.65
2022-12-08T07:03:51.647Z,17.55
2022-12-08T07:04:53.894Z,14.18
2022-12-08T07:06:03.868Z,15.68
2022-12-08T07:07:06.778Z,15.57
2022-12-08T07:08:09.963Z,16.98
2022-12-08T07:09:12.382Z,17.10
2022-12-08T07:10:14.634Z,14.68
2022-12-08T07:11:21.576Z,18.77
2022-12-08T07:12:24.361Z,17.92
2022-12-08T07:13:26.613Z,14.20
2022-12-08T07:14:29.105Z,15.95
2022-12-08T07:15:31.459Z,18.48
2022-12-08T07:16:33.923Z,16.73
2022-12-08T07:17:36.229Z,20.60
2022-12-08T07:18:39.364Z,18.88
2022-12-08T07:19:41.862Z,17.45
2022-12-08T07:20:44.310Z,17.45
2022-12-08T07:21:46.699Z,17.20
2022-12-08T07:22:50.638Z,16.52
2022-12-08T07:23:57.694Z,21.60
2022-12-08T07:25:00.348Z,19.75
2022-12-08T07:26:04.417Z,19.08
2022-12-08T07:27:06.653Z,18.55
2022-12-08T07:28:11.125Z,22.98
2022-12-08T07:29:13.547Z,24.33
2022-12-08T07:30:15.931Z,21.08
2022-12-08T07:31:21.134Z,21.88
2022-12-08T07:32:24.036Z,33.60
2022-12-08T07:33:26.658Z,26.48
2022-12-08T07:34:29.035Z,27.85
2022-12-08T07:35:31.433Z,28.20
2022-12-08T07:36:33.773Z,26.15
2022-12-08T07:37:37.514Z,23.83
2022-12-08T07:38:40.434Z,25.67
2022-12-08T07:39:43.189Z,23.27
2022-12-08T07:40:45.474Z,23.00
2022-12-08T07:41:47.694Z,22.55
2022-12-08T07:42:49.913Z,23.77
2022-12-08T07:43:53.796Z,21.85
2022-12-08T07:44:56.325Z,22.00
2022-12-08T07:45:58.653Z,19.83
2022-12-08T07:47:01.050Z,18.33
2022-12-08T07:48:03.549Z,26.67
2022-12-08T07:49:05.791Z,28.08
2022-12-08T07:50:08.674Z,24.35
2022-12-08T07:51:13.730Z,20.98
2022-12-08T08:01:27.840Z,17.52
2022-12-08T08:02:32.100Z,21.92
2022-12-08T08:03:36.923Z,16.10
2022-12-08T08:04:39.279Z,17.55
2022-12-08T08:05:44.234Z,16.17
2022-12-08T08:06:46.504Z,18.13
2022-12-08T08:07:48.826Z,17.42
2022-12-08T08:08:51.349Z,20.05
2022-12-08T08:09:54.534Z,16.80
2022-12-08T08:10:56.995Z,18.20
2022-12-08T08:12:28.892Z,22.02
2022-12-08T08:13:21.516Z,17.48
2022-12-08T08:14:23.779Z,18.00
2022-12-08T08:15:27.579Z,17.77
2022-12-08T08:16:34.943Z,16.38
2022-12-08T08:17:40.506Z,13.95
2022-12-08T08:18:43.586Z,18.67
2022-12-08T08:19:46.398Z,16.42
2022-12-08T08:20:49.905Z,19.88
2022-12-08T08:21:52.173Z,14.65
2022-12-08T08:22:54.686Z,17.48
2022-12-08T08:23:57.028Z,16.83
2022-12-08T08:24:59.608Z,17.50
2022-12-08T08:26:05.833Z,16.77
2022-12-08T08:27:08.235Z,20.30
2022-12-08T08:28:10.489Z,13.25
2022-12-08T08:29:12.722Z,16.65
2022-12-08T08:30:20.304Z,16.15
2022-12-08T08:31:26.967Z,14.70
2022-12-08T08:33:53.290Z,17.52
2022-12-08T08:34:55.512Z,17.60
2022-12-08T08:35:57.839Z,18.17
2022-12-08T08:37:01.496Z,15.45
2022-12-08T08:38:05.627Z,16.38
2022-12-08T08:39:11.248Z,16.85
2022-12-08T08:40:18.909Z,20.55
2022-12-08T08:41:39.611Z,16.33
2022-12-08T08:42:42.101Z,16.77
2022-12-08T08:43:53.045Z,17.85
2022-12-08T08:44:55.426Z,19.35
2022-12-08T08:46:01.534Z,17.20
2022-12-08T08:47:03.929Z,15.52
2022-12-08T08:48:06.281Z,18.10
2022-12-08T08:49:08.584Z,15.35
2022-12-08T08:50:10.982Z,16.17
2022-12-08T08:51:14.478Z,16.80
2022-12-08T08:52:16.912Z,17.33
2022-12-08T08:53:19.605Z,14.93
2022-12-08T08:54:21.859Z,15.30
2022-12-08T08:55:27.773Z,14.65
2022-12-08T08:56:37.732Z,17.80
2022-12-08T08:57:40.279Z,18.35
2022-12-08T08:58:42.810Z,15.77
2022-12-08T08:59:45.333Z,18.88
2022-12-08T09:00:47.776Z,17.42
2022-12-08T09:01:50.160Z,20.83
2022-12-08T09:02:54.707Z,14.50
2022-12-08T09:03:59.881Z,14.20
2022-12-08T09:05:02.580Z,14.48
2022-12-08T09:06:14.920Z,15.40
2022-12-08T09:07:20.246Z,14.43
2022-12-08T09:08:23.623Z,16.00
2022-12-08T09:09:26.000Z,18.75
2022-12-08T09:10:28.247Z,14.10
2022-12-08T09:11:32.735Z,14.65
2022-12-08T09:12:34.999Z,15.82
2022-12-08T09:13:37.498Z,18.90
2022-12-08T09:14:43.396Z,13.45
2022-12-08T09:15:48.139Z,14.60
2022-12-08T09:17:47.175Z,14.27
2022-12-08T09:18:50.223Z,14.57
2022-12-08T09:19:52.536Z,15.25
2022-12-08T09:20:54.893Z,13.15
2022-12-08T09:21:57.282Z,14.23
2022-12-08T09:22:59.576Z,13.52
2022-12-08T09:24:01.899Z,17.25
2022-12-08T09:25:04.393Z,15.05
2022-12-08T09:26:07.227Z,13.50
2022-12-08T09:27:09.564Z,13.10
2022-12-08T09:28:12.952Z,24.42
2022-12-08T09:29:15.310Z,14.02
2022-12-08T09:30:17.639Z,16.90
2022-12-08T09:31:21.790Z,14.68
2022-12-08T09:32:24.073Z,14.73
2022-12-08T09:33:26.345Z,14.90
2022-12-08T09:34:28.663Z,14.73
2022-12-08T09:35:30.950Z,14.10
2022-12-08T09:36:33.524Z,17.30
2022-12-08T09:37:35.852Z,16.63
2022-12-08T09:38:38.827Z,15.38
2022-12-08T09:39:41.069Z,15.57
2022-12-08T09:40:50.438Z,13.70
2022-12-08T09:42:07.409Z,14.93
2022-12-08T09:43:21.244Z,15.85
2022-12-08T09:44:47.742Z,16.42
2022-12-08T09:45:51.932Z,15.63
2022-12-08T09:46:56.143Z,14.55
2022-12-08T09:48:14.862Z,13.52
2022-12-08T09:49:21.586Z,13.30
2022-12-08T09:50:37.858Z,14.00
2022-12-08T09:51:41.984Z,13.55
2022-12-08T09:52:58.178Z,13.55
2022-12-08T09:54:19.495Z,13.93
2022-12-08T09:55:43.398Z,15.05
2022-12-08T09:56:46.036Z,14.40
2022-12-08T09:57:56.817Z,15.50
2022-12-08T09:59:24.932Z,13.48
2022-12-08T10:00:27.598Z,11.68
2022-12-08T10:01:42.475Z,11.82
2022-12-08T10:02:52.638Z,11.57
2022-12-08T10:03:56.160Z,11.43
2022-12-08T10:04:59.771Z,11.30
2022-12-08T10:06:21.374Z,13.18
2022-12-08T10:07:41.496Z,11.18
2022-12-08T10:09:27.703Z,13.30
2022-12-08T10:10:47.675Z,13.32
2022-12-08T10:12:04.918Z,14.57
2022-12-08T10:13:33.346Z,20.08
2022-12-08T10:14:48.099Z,16.98
2022-12-08T10:16:11.106Z,20.98
2022-12-08T10:17:32.631Z,19.33
2022-12-08T10:18:38.016Z,24.35
2022-12-08T10:19:43.420Z,20.75
2022-12-08T10:20:56.955Z,23.15
2022-12-08T10:21:59.404Z,26.08
2022-12-08T10:23:15.591Z,19.77
2022-12-08T10:24:33.591Z,19.65
2022-12-08T10:25:41.411Z,16.92
2022-12-08T10:27:55.711Z,16.50
2022-12-08T10:29:01.393Z,18.10
2022-12-08T10:30:14.507Z,15.23
2022-12-08T10:31:22.389Z,20.23
2022-12-08T10:32:33.942Z,17.70
2022-12-08T10:33:36.240Z,20.35
2022-12-08T10:35:04.089Z,16.08
2022-12-08T10:36:06.769Z,22.67
2022-12-08T10:37:16.972Z,23.77
2022-12-08T10:38:39.300Z,26.95
2022-12-08T10:39:46.885Z,20.90
2022-12-08T10:40:52.191Z,19.17
2022-12-08T10:42:00.024Z,19.05
2022-12-08T10:43:05.249Z,19.23
2022-12-08T10:44:10.000Z,18.60
2022-12-08T10:45:24.698Z,19.30
2022-12-08T10:46:29.014Z,18.60
2022-12-08T10:47:36.820Z,24.90
2022-12-08T10:48:48.828Z,22.45
2022-12-08T10:50:08.631Z,22.05
2022-12-08T10:51:36.461Z,23.02
2022-12-08T10:53:17.914Z,15.95
2022-12-08T10:54:32.682Z,18.45
2022-12-08T10:55:46.525Z,14.30
2022-12-08T10:56:55.505Z,20.50
2022-12-08T10:57:57.870Z,13.35
2022-12-08T10:59:18.694Z,15.65
2022-12-08T11:00:28.213Z,17.17
2022-12-08T11:01:37.890Z,22.55
2022-12-08T11:02:59.081Z,17.95
2022-12-08T11:04:04.398Z,25.30
2022-12-08T11:05:06.997Z,39.30
2022-12-08T11:06:21.965Z,38.53
2022-12-08T11:07:24.214Z,39.25
2022-12-08T11:08:29.067Z,36.20
2022-12-08T11:09:39.867Z,36.92
2022-12-08T11:10:45.583Z,30.23
2022-12-08T11:11:50.690Z,27.65
2022-12-08T11:12:53.222Z,24.77
2022-12-08T11:13:55.491Z,24.10
2022-12-08T11:15:03.360Z,24.00
2022-12-08T11:16:07.229Z,21.05
2022-12-08T11:17:39.665Z,17.65
2022-12-08T11:18:47.052Z,21.17
2022-12-08T11:20:02.924Z,17.13
2022-12-08T11:21:17.090Z,16.73
2022-12-08T11:22:32.218Z,17.00
2022-12-08T11:23:36.992Z,15.27
2022-12-08T11:24:39.248Z,15.50
2022-12-08T11:25:41.703Z,14.63
2022-12-08T11:27:06.419Z,13.55
2022-12-08T11:30:42.324Z,14.10
2022-12-08T11:31:50.175Z,15.60
2022-12-08T11:33:01.960Z,14.57
2022-12-08T11:34:06.575Z,15.63
2022-12-08T11:35:17.885Z,14.25
2022-12-08T11:36:22.156Z,12.80
2022-12-08T11:37:35.358Z,18.33
2022-12-08T11:38:42.557Z,17.88
2022-12-08T11:39:49.300Z,19.42
2022-12-08T11:41:03.626Z,20.88
2022-12-08T11:42:13.129Z,22.58
2022-12-08T11:43:36.974Z,23.48
2022-12-08T11:44:54.898Z,24.58
2022-12-08T11:46:03.120Z,28.23
2022-12-08T11:47:19.646Z,26.17
2022-12-08T11:48:40.660Z,22.80
2022-12-08T11:49:44.181Z,25.20
2022-12-08T11:50:57.268Z,26.45
2022-12-08T11:52:12.188Z,24.00
2022-12-08T11:53:22.395Z,23.75
2022-12-08T11:54:34.359Z,24.98
2022-12-08T11:55:45.141Z,23.92
2022-12-08T11:57:30.793Z,23.67
2022-12-08T11:58:43.790Z,22.52
2022-12-08T11:59:51.996Z,24.25
2022-12-08T12:00:54.230Z,31.17
2022-12-08T12:02:01.873Z,26.13
2022-12-08T12:03:13.873Z,24.27
2022-12-08T12:04:44.617Z,25.05
2022-12-08T12:06:38.082Z,22.55
2022-12-08T12:08:09.470Z,18.40
2022-12-08T12:09:35.874Z,13.77
2022-12-08T12:10:50.119Z,14.18
2022-12-08T12:12:15.970Z,12.80
2022-12-08T12:13:48.492Z,13.38
2022-12-08T12:15:17.745Z,9.32
2022-12-08T12:16:34.604Z,13.10
2022-12-08T12:17:57.841Z,12.65
2022-12-08T12:19:05.651Z,12.30
2022-12-08T12:20:38.109Z,12.90
2022-12-08T12:21:48.601Z,11.75
2022-12-08T12:22:59.347Z,12.18
2022-12-08T12:24:25.906Z,10.25
2022-12-08T12:25:29.242Z,10.02
2022-12-08T12:26:37.270Z,11.73
2022-12-08T12:27:40.444Z,11.85
2022-12-08T12:28:50.312Z,12.65
2022-12-08T12:30:02.602Z,10.02
2022-12-08T12:34:20.298Z,9.63
2022-12-08T12:35:37.122Z,13.23
2022-12-08T12:36:59.210Z,29.73
2022-12-08T12:38:28.895Z,20.83
2022-12-08T12:39:45.219Z,23.40
2022-12-08T12:40:47.501Z,24.73
2022-12-08T12:41:59.616Z,30.77
2022-12-08T12:43:01.942Z,25.88
2022-12-08T12:44:28.980Z,24.88
2022-12-08T12:45:34.140Z,22.88
2022-12-08T12:46:39.562Z,19.80
2022-12-08T12:47:56.018Z,17.85
2022-12-08T12:49:37.644Z,16.55
2022-12-08T12:50:46.797Z,13.43
2022-12-08T12:51:54.856Z,13.85
2022-12-08T12:52:57.163Z,11.98
2022-12-08T12:54:23.805Z,12.80
2022-12-08T12:55:28.908Z,11.60
2022-12-08T12:56:48.806Z,14.65
2022-12-08T12:57:57.359Z,12.43
2022-12-08T12:59:30.994Z,13.02
2022-12-08T13:00:33.674Z,12.27
2022-12-08T13:01:41.224Z,12.32
2022-12-08T13:02:49.254Z,11.27
2022-12-08T13:04:09.081Z,11.93
2022-12-08T13:05:35.453Z,10.40
2022-12-08T13:06:45.520Z,11.02
2022-12-08T13:07:58.862Z,11.43
2022-12-08T13:09:01.458Z,10.75
2022-12-08T13:10:15.550Z,10.55
2022-12-08T13:11:18.162Z,10.20
2022-12-08T13:12:24.093Z,10.35
2022-12-08T13:13:26.800Z,11.43
2022-12-08T13:14:35.204Z,10.60
2022-12-08T13:15:40.307Z,10.52
2022-12-08T13:16:42.742Z,12.52
2022-12-08T13:17:47.292Z,11.20
2022-12-08T13:19:52.037Z,10.95
2022-12-08T13:21:15.994Z,11.68
2022-12-08T13:22:48.278Z,13.07
2022-12-08T13:24:17.734Z,11.55
2022-12-08T13:25:44.288Z,10.80
2022-12-08T13:27:09.750Z,11.13
2022-12-08T13:28:28.299Z,12.02
2022-12-08T13:29:34.346Z,9.85
2022-12-08T13:30:56.307Z,12.52
2022-12-08T13:32:27.071Z,11.57
2022-12-08T13:33:44.461Z,11.05
2022-12-08T13:35:00.097Z,13.80
2022-12-08T13:36:08.001Z,12.95
2022-12-08T13:37:13.780Z,14.23
2022-12-08T13:38:19.587Z,12.52
2022-12-08T13:39:30.364Z,12.43
2022-12-08T13:40:36.435Z,10.73
2022-12-08T13:41:44.524Z,12.40
2022-12-08T13:42:57.237Z,12.15
2022-12-08T13:46:31.786Z,13.35
2022-12-08T13:47:25.112Z,10.95
2022-12-08T13:49:13.579Z,14.95
2022-12-08T13:55:53.668Z,12.93
2022-12-08T13:57:36.868Z,12.95
2022-12-08T13:58:40.213Z,12.13
2022-12-08T13:59:46.230Z,12.65
2022-12-08T14:00:58.482Z,12.48
2022-12-08T14:02:31.303Z,14.75
2022-12-08T14:05:40.716Z,11.20
2022-12-08T14:06:47.945Z,12.90
2022-12-08T14:07:53.338Z,11.85
2022-12-08T14:09:06.884Z,14.27
2022-12-08T14:10:31.978Z,13.57
2022-12-08T14:11:40.700Z,11.80
2022-12-08T14:12:47.937Z,12.90
2022-12-08T14:13:51.527Z,14.50
2022-12-08T14:15:06.398Z,12.70
2022-12-08T14:16:28.035Z,12.45
2022-12-08T14:17:30.448Z,16.83
2022-12-08T14:18:32.804Z,11.60
2022-12-08T14:19:35.660Z,14.27
2022-12-08T14:21:12.205Z,12.45
2022-12-08T14:22:03.490Z,14.25
2022-12-08T14:23:08.207Z,14.05
2022-12-08T14:24:12.084Z,13.00
2022-12-08T14:25:16.616Z,14.07
2022-12-08T14:26:18.957Z,15.55
2022-12-08T14:27:26.267Z,12.85
2022-12-08T14:28:28.813Z,13.35
2022-12-08T14:29:47.752Z,12.75
2022-12-08T14:30:51.489Z,10.93
2022-12-08T14:31:54.225Z,12.57
2022-12-08T14:32:59.058Z,13.30
2022-12-08T14:34:01.541Z,12.60
2022-12-08T14:35:06.887Z,11.32
2022-12-08T14:36:10.936Z,11.07
2022-12-08T14:37:14.032Z,13.27
2022-12-08T14:38:19.197Z,12.80
2022-12-08T14:39:21.777Z,11.40
2022-12-08T14:40:34.790Z,9.70
2022-12-08T14:41:37.459Z,12.57
2022-12-08T14:42:55.339Z,13.88
2022-12-08T14:44:01.920Z,10.38
2022-12-08T14:45:10.096Z,11.98
2022-12-08T14:46:21.884Z,13.98
2022-12-08T14:47:30.551Z,13.13
2022-12-08T14:48:38.488Z,11.65
2022-12-08T14:49:40.841Z,13.60
2022-12-08T14:50:55.409Z,14.30
2022-12-08T14:51:57.978Z,16.08
2022-12-08T14:53:00.555Z,15.10
2022-12-08T14:54:06.692Z,17.08
2022-12-08T14:55:09.164Z,15.52
2022-12-08T14:56:23.220Z,12.10
2022-12-08T14:57:35.642Z,13.23
2022-12-08T14:58:38.496Z,14.25
2022-12-08T14:59:42.336Z,16.17
2022-12-08T15:00:52.213Z,12.82
2022-12-08T15:02:09.139Z,13.80
2022-12-08T15:03:13.301Z,12.95
2022-12-08T15:04:20.317Z,12.15
2022-12-08T15:05:29.155Z,14.75
2022-12-08T15:06:31.763Z,13.05
2022-12-08T15:07:43.039Z,14.38
2022-12-08T15:08:55.000Z,14.95
2022-12-08T15:10:10.470Z,13.57